Time;durP1;ratioP1;P1;durP2;ratioP2;P2;SDS_P1;SDS_P2;PMS_P1;PMS_P2;Temp;Humidity;BMP_temperature;BMP_pressure;BME280_temperature;BME280_humidity;BME280_pressure;Samples;Min_cycle;Max_cycle;Signal;HPM_P1;HPM_P2
2021/12/07 00:00:48;;;;;;;;;;;;;;;;;;5023461;28;19975;-69
2021/12/07 00:03:22;;;;;;;;;;;;;;;;;;5020932;28;20259;-69
2021/12/07 00:06:04;;;;;;;;;;;;;;;;;;5024880;28;19957;-68
2021/12/07 00:08:43;;;;;;;;;;;;;;;;;;5025220;28;19966;-68
2021/12/07 00:11:13;;;;;;;;;;;;;;;;;;5033432;28;19931;-68
2021/12/07 00:13:44;;;;;;;;;;;;;;;;;;5026535;28;20378;-69
2021/12/07 00:16:13;;;;;;;;;;;;;;;;;;5024450;28;19929;-69
2021/12/07 00:18:45;;;;;;;;;;;;;;;;;;5022521;28;21409;-69
2021/12/07 00:21:17;;;;;;;;;;;;;;;;;;5026969;28;19925;-69
2021/12/07 00:23:46;;;;;;;;;;;;;;;;;;5025069;28;19929;-69
2021/12/07 00:26:25;;;;;;;;;;;;;;;;;;5013061;28;19933;-69
2021/12/07 00:28:56;;;;;;;;;;;;;;;;;;5023279;28;19982;-69
2021/12/07 00:31:34;;;;;;;;;;;;;;;;;;5024013;28;19929;-69
2021/12/07 00:34:18;;;;;;;;;;;;;;;;;;5019114;28;19925;-69
2021/12/07 00:36:48;;;;;;;;;;;;;;;;;;5026368;28;20288;-70
2021/12/07 00:39:23;;;;;;;;;;;;;;;;;;5026884;28;20363;-70
2021/12/07 00:41:51;;;;;;;;;;;;;;;;;;5027918;28;20366;-70
2021/12/07 00:44:19;;;;;;;;;;;;;;;;;;5028312;28;20011;-69
2021/12/07 00:46:52;;;;;;;;;;;;;;;;;;5022771;28;19964;-69
2021/12/07 00:49:22;;;;;;;;;;;;;;;;;;5027837;28;20271;-69
2021/12/07 00:51:50;;;;;;;;;;;;;;;;;;5030066;28;19940;-69
2021/12/07 00:54:23;;;;;;;;;;;;;;;;;;5026467;28;20297;-69
2021/12/07 00:56:51;;;;;;;;;;;;;;;;;;5027242;28;19925;-69
2021/12/07 00:59:21;;;;;;;;;;;;;;;;;;5022495;28;19932;-70
2021/12/07 01:01:51;;;;;;;;;;;;;;;;;;5026937;28;19936;-69
2021/12/07 01:04:23;;;;;;;;;;;;;;;;;;5029610;28;20390;-69
2021/12/07 01:07:03;;;;;;;;;;;;;;;;;;5028855;28;19947;-69
2021/12/07 01:26:33;;;;;;;;;;;;;;;;;;5029624;28;19925;-74
2021/12/07 01:29:19;;;;;;;;;;;;;;;;;;5030410;28;20013;-70
2021/12/07 01:32:51;;;;;;;;;;;;;;;;;;5026213;28;19955;-70
2021/12/07 01:35:27;;;;;;;;;;;;;;;;;;5018849;28;19975;-69
2021/12/07 01:46:32;;;;;;;;;;;;;;;;;;5026603;28;19924;-69
2021/12/07 02:00:03;;;;;;;;;;;;;;;;;;5022687;28;19929;-69
2021/12/07 02:02:33;;;;;;;;;;;;;;;;;;5028263;28;20073;-69
2021/12/07 02:05:05;;;;;;;;;;;;;;;;;;5026732;28;19936;-69
2021/12/07 02:07:34;;;;;;;;;;;;;;;;;;5028569;28;19925;-69
2021/12/07 02:10:07;;;;;;;;;;;;;;;;;;5020087;28;19939;-69
2021/12/07 02:12:42;;;;;;;;;;;;;;;;;;5028302;28;19983;-69
2021/12/07 02:15:12;;;;;;;;;;;;;;;;;;5028010;28;19997;-69
2021/12/07 02:17:43;;;;;;;;;;;;;;;;;;5022040;28;19936;-69
2021/12/07 02:20:12;;;;;;;;;;;;;;;;;;5008499;28;19939;-69
2021/12/07 02:22:54;;;;;;;;;;;;;;;;;;5027320;28;19960;-69
2021/12/07 02:25:24;;;;;;;;;;;;;;;;;;5026252;28;19924;-68
2021/12/07 02:27:53;;;;;;;;;;;;;;;;;;5034829;28;19925;-69
2021/12/07 02:30:22;;;;;;;;;;;;;;;;;;5026584;28;19943;-69
2021/12/07 02:32:53;;;;;;;;;;;;;;;;;;5029142;28;19925;-69
2021/12/07 02:35:26;;;;;;;;;;;;;;;;;;5024824;28;19925;-69
2021/12/07 02:37:58;;;;;;;;;;;;;;;;;;5024300;28;19929;-69
2021/12/07 02:40:29;;;;;;;;;;;;;;;;;;5029620;28;19933;-69
2021/12/07 02:42:59;;;;;;;;;;;;;;;;;;5027075;28;19932;-69
2021/12/07 02:45:26;;;;;;;;;;;;;;;;;;5027470;28;20008;-69
2021/12/07 02:47:55;;;;;;;;;;;;;;;;;;5020097;28;19929;-69
2021/12/07 02:50:27;;;;;;;;;;;;;;;;;;5027458;28;19928;-69
2021/12/07 02:52:59;;;;;;;;;;;;;;;;;;5028315;28;20024;-70
2021/12/07 02:55:34;;;;;;;;;;;;;;;;;;5019753;28;20448;-70
2021/12/07 02:58:07;;;;;;;;;;;;;;;;;;5022527;28;19925;-70
2021/12/07 03:00:44;;;;;;;;;;;;;;;;;;5041305;28;19929;-70
2021/12/07 03:03:30;;;;;;;;;;;;;;;;;;5025469;28;19968;-70
2021/12/07 03:09:20;;;;;;;;;;;;;;;;;;5025315;28;19925;-69
2021/12/07 03:28:32;;;;;;;;;;;;;;;;;;5026203;28;19937;-69
2021/12/07 03:31:02;;;;;;;;;;;;;;;;;;5027557;28;19925;-69
2021/12/07 03:33:30;;;;;;;;;;;;;;;;;;5028196;28;19925;-69
2021/12/07 03:36:02;;;;;;;;;;;;;;;;;;5020601;28;19936;-69
2021/12/07 03:38:32;;;;;;;;;;;;;;;;;;5022430;28;19964;-69
2021/12/07 03:41:03;;;;;;;;;;;;;;;;;;5026717;28;19974;-69
2021/12/07 03:43:32;;;;;;;;;;;;;;;;;;5018579;28;20426;-69
2021/12/07 03:46:02;;;;;;;;;;;;;;;;;;5020571;28;19925;-69
2021/12/07 03:48:34;;;;;;;;;;;;;;;;;;5027227;28;19925;-69
2021/12/07 03:51:01;;;;;;;;;;;;;;;;;;5026763;28;19936;-69
2021/12/07 03:53:32;;;;;;;;;;;;;;;;;;5026632;28;20493;-70
2021/12/07 03:56:03;;;;;;;;;;;;;;;;;;5018339;28;20474;-70
2021/12/07 03:58:36;;;;;;;;;;;;;;;;;;5023201;28;19936;-70
2021/12/07 04:01:06;;;;;;;;;;;;;;;;;;5023191;28;20622;-69
2021/12/07 04:03:41;;;;;;;;;;;;;;;;;;5042253;28;19970;-69
2021/12/07 04:06:10;;;;;;;;;;;;;;;;;;5023202;28;20104;-69
2021/12/07 04:08:46;;;;;;;;;;;;;;;;;;5022085;28;19932;-69
2021/12/07 04:11:16;;;;;;;;;;;;;;;;;;5020701;28;19936;-69
2021/12/07 04:13:49;;;;;;;;;;;;;;;;;;5039737;28;19925;-70
2021/12/07 04:16:20;;;;;;;;;;;;;;;;;;5024702;28;19929;-69
2021/12/07 04:18:51;;;;;;;;;;;;;;;;;;5029424;28;20032;-69
2021/12/07 04:21:19;;;;;;;;;;;;;;;;;;5029349;28;19925;-69
2021/12/07 04:23:48;;;;;;;;;;;;;;;;;;5028904;28;20370;-69
2021/12/07 04:26:25;;;;;;;;;;;;;;;;;;5004637;28;19929;-69
2021/12/07 04:28:55;;;;;;;;;;;;;;;;;;5036361;28;19925;-69
2021/12/07 04:31:26;;;;;;;;;;;;;;;;;;5028470;28;19925;-69
2021/12/07 04:33:55;;;;;;;;;;;;;;;;;;5033564;28;19929;-69
2021/12/07 04:36:28;;;;;;;;;;;;;;;;;;5022139;28;19987;-70
2021/12/07 04:39:00;;;;;;;;;;;;;;;;;;5027797;28;19929;-69
2021/12/07 04:41:32;;;;;;;;;;;;;;;;;;5028760;28;19932;-69
2021/12/07 04:44:03;;;;;;;;;;;;;;;;;;5026273;28;19929;-69
2021/12/07 04:50:06;;;;;;;;;;;;;;;;;;5021537;28;19940;-69
2021/12/07 04:57:52;;;;;;;;;;;;;;;;;;5032770;28;19935;-69
2021/12/07 05:00:23;;;;;;;;;;;;;;;;;;5032133;28;19929;-69
2021/12/07 05:02:59;;;;;;;;;;;;;;;;;;5030258;28;19990;-69
2021/12/07 05:05:32;;;;;;;;;;;;;;;;;;5030702;28;19975;-69
2021/12/07 05:08:08;;;;;;;;;;;;;;;;;;5025599;28;20378;-68
2021/12/07 05:11:23;;;;;;;;;;;;;;;;;;5026969;28;19978;-68
2021/12/07 05:13:49;;;;;;;;;;;;;;;;;;5027823;28;19929;-68
2021/12/07 05:25:41;;;;;;;;;;;;;;;;;;5000376;28;19926;-68
2021/12/07 05:38:56;;;;;;;;;;;;;;;;;;4987779;28;19926;-69
2021/12/07 05:41:27;;;;;;;;;;;;;;;;;;4989250;28;19925;-69
2021/12/07 05:43:59;;;;;;;;;;;;;;;;;;4987981;28;19991;-69
2021/12/07 05:46:27;;;;;;;;;;;;;;;;;;4987373;28;19930;-68
2021/12/07 05:48:59;;;;;;;;;;;;;;;;;;5000460;28;20280;-69
2021/12/07 05:51:26;;;;;;;;;;;;;;;;;;4984734;28;19945;-69
2021/12/07 05:53:58;;;;;;;;;;;;;;;;;;4986978;28;20296;-69
2021/12/07 05:56:30;;;;;;;;;;;;;;;;;;4988593;28;19934;-69
2021/12/07 05:58:59;;;;;;;;;;;;;;;;;;4988925;28;19926;-68
2021/12/07 06:01:29;;;;;;;;;;;;;;;;;;4990144;28;20712;-68
2021/12/07 06:04:01;;;;;;;;;;;;;;;;;;4987544;28;19929;-69
2021/12/07 06:06:35;;;;;;;;;;;;;;;;;;4988233;28;19925;-69
2021/12/07 06:09:07;;;;;;;;;;;;;;;;;;4987063;28;19974;-69
2021/12/07 06:11:36;;;;;;;;;;;;;;;;;;4985764;28;20364;-69
2021/12/07 06:14:07;;;;;;;;;;;;;;;;;;4985237;28;19925;-69
2021/12/07 06:16:38;;;;;;;;;;;;;;;;;;4988612;28;19938;-69
2021/12/07 06:19:06;;;;;;;;;;;;;;;;;;4989018;28;19984;-69
2021/12/07 06:21:37;;;;;;;;;;;;;;;;;;4988227;28;19995;-68
2021/12/07 06:24:06;;;;;;;;;;;;;;;;;;5003344;28;19927;-69
2021/12/07 06:26:39;;;;;;;;;;;;;;;;;;5024967;28;19948;-69
2021/12/07 06:29:13;;;;;;;;;;;;;;;;;;5023182;28;19948;-68
2021/12/07 06:31:43;;;;;;;;;;;;;;;;;;5023138;28;20491;-68
2021/12/07 06:34:13;;;;;;;;;;;;;;;;;;5024777;28;19933;-68
2021/12/07 06:36:42;;;;;;;;;;;;;;;;;;5024315;28;19932;-68
2021/12/07 06:39:13;;;;;;;;;;;;;;;;;;5019649;28;19925;-69
2021/12/07 06:41:42;;;;;;;;;;;;;;;;;;5024812;28;19925;-67
2021/12/07 06:44:11;;;;;;;;;;;;;;;;;;5026857;28;19935;-68
2021/12/07 06:46:42;;;;;;;;;;;;;;;;;;5024651;28;19932;-68
2021/12/07 06:49:11;;;;;;;;;;;;;;;;;;5026482;28;19933;-68
2021/12/07 06:51:39;;;;;;;;;;;;;;;;;;5026791;28;19926;-69
2021/12/07 06:54:07;;;;;;;;;;;;;;;;;;5021098;28;19925;-68
2021/12/07 06:56:43;;;;;;;;;;;;;;;;;;5025912;28;19929;-68
2021/12/07 06:59:12;;;;;;;;;;;;;;;;;;5025189;28;20456;-67
2021/12/07 07:01:42;;;;;;;;;;;;;;;;;;5026024;28;19978;-68
2021/12/07 07:04:14;;;;;;;;;;;;;;;;;;5022908;28;19929;-66
2021/12/07 07:07:18;;;;;;;;;;;;;;;;;;5011080;28;20347;-67
2021/12/07 07:09:52;;;;;;;;;;;;;;;;;;5024576;28;19974;-67
2021/12/07 07:12:22;;;;;;;;;;;;;;;;;;5026768;28;19946;-70
2021/12/07 07:14:52;;;;;;;;;;;;;;;;;;5017827;28;19925;-69
2021/12/07 07:17:22;;;;;;;;;;;;;;;;;;5033236;28;20012;-69
2021/12/07 07:19:53;;;;;;;;;;;;;;;;;;5019954;28;19933;-70
2021/12/07 07:22:22;;;;;;;;;;;;;;;;;;5032207;28;20531;-65
2021/12/07 07:24:58;;;;;;;;;;;;;;;;;;4997623;28;19940;-67
2021/12/07 07:27:28;;;;;;;;;;;;;;;;;;4984176;28;19995;-71
2021/12/07 07:29:58;;;;;;;;;;;;;;;;;;4982315;28;19926;-70
2021/12/07 07:32:26;;;;;;;;;;;;;;;;;;4987584;28;19936;-69
2021/12/07 07:34:58;;;;;;;;;;;;;;;;;;4981874;28;19926;-69
2021/12/07 07:37:37;;;;;;;;;;;;;;;;;;4986969;28;20039;-75
2021/12/07 07:40:06;;;;;;;;;;;;;;;;;;4982162;28;20520;-70
2021/12/07 07:42:40;;;;;;;;;;;;;;;;;;4986451;28;19934;-69
2021/12/07 07:45:09;;;;;;;;;;;;;;;;;;4985258;28;20395;-69
2021/12/07 07:47:38;;;;;;;;;;;;;;;;;;4985227;28;19926;-69
2021/12/07 07:50:09;;;;;;;;;;;;;;;;;;4984056;28;20016;-69
2021/12/07 07:52:39;;;;;;;;;;;;;;;;;;4988131;28;19926;-69
2021/12/07 07:55:07;;;;;;;;;;;;;;;;;;4985714;28;19925;-70
2021/12/07 07:57:37;;;;;;;;;;;;;;;;;;4987544;28;19926;-74
2021/12/07 08:00:06;;;;;;;;;;;;;;;;;;4981191;28;19933;-70
2021/12/07 08:02:36;;;;;;;;;;;;;;;;;;4987645;28;20382;-69
2021/12/07 08:05:08;;;;;;;;;;;;;;;;;;4986402;28;19929;-69
2021/12/07 08:07:39;;;;;;;;;;;;;;;;;;4992378;28;19929;-71
2021/12/07 08:10:09;;;;;;;;;;;;;;;;;;4980142;28;19926;-70
2021/12/07 08:12:51;;;;;;;;;;;;;;;;;;4986810;28;20023;-69
2021/12/07 08:15:22;;;;;;;;;;;;;;;;;;4984971;28;19925;-70
2021/12/07 08:17:54;;;;;;;;;;;;;;;;;;4985778;28;19931;-68
2021/12/07 08:20:27;;;;;;;;;;;;;;;;;;4984300;28;19926;-68
2021/12/07 08:22:58;;;;;;;;;;;;;;;;;;4967041;28;20241;-70
2021/12/07 08:25:30;;;;;;;;;;;;;;;;;;5019834;28;20396;-67
2021/12/07 08:27:59;;;;;;;;;;;;;;;;;;5023553;28;19930;-69
2021/12/07 08:30:29;;;;;;;;;;;;;;;;;;5023545;28;19929;-68
2021/12/07 08:32:57;;;;;;;;;;;;;;;;;;5024616;28;20562;-67
2021/12/07 08:35:31;;;;;;;;;;;;;;;;;;5021914;28;19929;-71
2021/12/07 08:38:00;;;;;;;;;;;;;;;;;;5011522;28;19925;-73
2021/12/07 08:40:30;;;;;;;;;;;;;;;;;;5025984;28;20150;-71
2021/12/07 08:42:58;;;;;;;;;;;;;;;;;;5024780;28;19991;-72
2021/12/07 08:45:30;;;;;;;;;;;;;;;;;;5022008;28;20431;-71
2021/12/07 08:47:58;;;;;;;;;;;;;;;;;;5011923;28;19948;-72
2021/12/07 08:50:32;;;;;;;;;;;;;;;;;;5024434;28;19925;-72
2021/12/07 08:53:02;;;;;;;;;;;;;;;;;;5021597;28;19925;-71
2021/12/07 09:01:14;;;;;;;;;;;;;;;;;;5022618;28;19951;-72
2021/12/07 09:03:47;;;;;;;;;;;;;;;;;;5027123;28;19929;-70
2021/12/07 09:06:17;;;;;;;;;;;;;;;;;;5026293;28;19933;-70
2021/12/07 09:08:45;;;;;;;;;;;;;;;;;;5029367;28;20255;-71
2021/12/07 09:11:16;;;;;;;;;;;;;;;;;;5020344;28;19925;-69
2021/12/07 09:13:48;;;;;;;;;;;;;;;;;;5028222;28;20606;-69
2021/12/07 09:16:17;;;;;;;;;;;;;;;;;;5030365;28;19929;-70
2021/12/07 09:18:46;;;;;;;;;;;;;;;;;;5031434;28;19925;-68
2021/12/07 09:21:16;;;;;;;;;;;;;;;;;;5030048;28;19933;-72
2021/12/07 09:23:44;;;;;;;;;;;;;;;;;;5025828;28;19935;-72
2021/12/07 09:26:23;;;;;;;;;;;;;;;;;;5025753;28;20624;-72
2021/12/07 09:28:54;;;;;;;;;;;;;;;;;;5025211;28;19929;-69
2021/12/07 09:31:25;;;;;;;;;;;;;;;;;;5021986;28;19933;-71
2021/12/07 09:34:39;;;;;;;;;;;;;;;;;;5077242;27;1937292;-76
2021/12/07 09:37:23;;;;;;;;;;;;;;;;;;5114129;27;19963;-74
2021/12/07 09:39:53;;;;;;;;;;;;;;;;;;5107516;28;19927;-73
2021/12/07 09:42:29;;;;;;;;;;;;;;;;;;5117080;28;20466;-69
2021/12/07 09:45:01;;;;;;;;;;;;;;;;;;5119267;27;19923;-70
2021/12/07 09:47:31;;;;;;;;;;;;;;;;;;5099248;28;21287;-70
2021/12/07 09:50:08;;;;;;;;;;;;;;;;;;5114134;28;19985;-70
2021/12/07 09:52:40;;;;;;;;;;;;;;;;;;5114976;28;20567;-71
2021/12/07 09:55:08;;;;;;;;;;;;;;;;;;5116432;27;19930;-69
2021/12/07 09:57:41;;;;;;;;;;;;;;;;;;5113658;28;19965;-70
2021/12/07 10:00:17;;;;;;;;;;;;;;;;;;5106730;27;19935;-68
2021/12/07 10:02:54;;;;;;;;;;;;;;;;;;5112436;28;20446;-69
2021/12/07 10:05:24;;;;;;;;;;;;;;;;;;5107622;28;19931;-72
2021/12/07 10:07:54;;;;;;;;;;;;;;;;;;5111813;27;19932;-72
2021/12/07 10:10:23;;;;;;;;;;;;;;;;;;5111409;28;20534;-72
2021/12/07 10:12:55;;;;;;;;;;;;;;;;;;5115454;27;19924;-74
2021/12/07 10:15:26;;;;;;;;;;;;;;;;;;5120150;28;20472;-68
2021/12/07 10:17:57;;;;;;;;;;;;;;;;;;5114550;27;19928;-68
2021/12/07 10:20:32;;;;;;;;;;;;;;;;;;5108690;28;19923;-68
2021/12/07 10:23:02;;;;;;;;;;;;;;;;;;5108604;27;19928;-68
2021/12/07 10:25:34;;;;;;;;;;;;;;;;;;5113534;28;19943;-68
2021/12/07 10:28:04;;;;;;;;;;;;;;;;;;5113776;27;20306;-68
2021/12/07 10:30:35;;;;;;;;;;;;;;;;;;5119073;27;20315;-67
2021/12/07 10:33:04;;;;;;;;;;;;;;;;;;5113389;27;19924;-67
2021/12/07 10:35:37;;;;;;;;;;;;;;;;;;5095533;27;20557;-67
2021/12/07 10:38:08;;;;;;;;;;;;;;;;;;5098687;28;19943;-68
2021/12/07 10:40:38;;;;;;;;;;;;;;;;;;5097051;28;19933;-67
2021/12/07 10:43:09;;;;;;;;;;;;;;;;;;5102964;28;19928;-67
2021/12/07 10:45:43;;;;;;;;;;;;;;;;;;5090235;28;19934;-67
2021/12/07 10:48:16;;;;;;;;;;;;;;;;;;5081878;28;19928;-68
2021/12/07 10:50:47;;;;;;;;;;;;;;;;;;5087604;28;19928;-73
2021/12/07 10:53:17;;;;;;;;;;;;;;;;;;5088698;28;19932;-69
2021/12/07 10:55:46;;;;;;;;;;;;;;;;;;5092164;28;19936;-69
2021/12/07 10:58:17;;;;;;;;;;;;;;;;;;5084937;28;20300;-69
2021/12/07 11:00:50;;;;;;;;;;;;;;;;;;5085535;28;19951;-69
2021/12/07 11:03:21;;;;;;;;;;;;;;;;;;5084661;28;19957;-69
2021/12/07 11:06:01;;;;;;;;;;;;;;;;;;5082940;28;19928;-70
2021/12/07 11:08:35;;;;;;;;;;;;;;;;;;5090429;28;19939;-70
2021/12/07 11:11:03;;;;;;;;;;;;;;;;;;5072400;28;20551;-69
2021/12/07 11:13:41;;;;;;;;;;;;;;;;;;5086106;28;20011;-69
2021/12/07 11:16:15;;;;;;;;;;;;;;;;;;5067203;28;19924;-69
2021/12/07 11:18:44;;;;;;;;;;;;;;;;;;5084649;28;19955;-69
2021/12/07 11:21:12;;;;;;;;;;;;;;;;;;5084104;28;19932;-70
2021/12/07 11:23:41;;;;;;;;;;;;;;;;;;5078673;28;19924;-70
2021/12/07 11:31:41;;;;;;;;;;;;;;;;;;4999742;28;19940;-70
2021/12/07 11:34:15;;;;;;;;;;;;;;;;;;5003968;28;19929;-70
2021/12/07 11:36:46;;;;;;;;;;;;;;;;;;5055976;28;19925;-69
2021/12/07 11:39:16;;;;;;;;;;;;;;;;;;5084727;28;19928;-70
2021/12/07 11:41:46;;;;;;;;;;;;;;;;;;5084968;28;20334;-69
2021/12/07 11:44:18;;;;;;;;;;;;;;;;;;5084553;28;19932;-69
2021/12/07 11:46:51;;;;;;;;;;;;;;;;;;5079934;28;20019;-69
2021/12/07 11:49:20;;;;;;;;;;;;;;;;;;5087489;28;19928;-71
2021/12/07 11:51:47;;;;;;;;;;;;;;;;;;5080112;28;19939;-70
2021/12/07 11:54:18;;;;;;;;;;;;;;;;;;5079177;28;20304;-71
2021/12/07 11:56:52;;;;;;;;;;;;;;;;;;5079314;28;19932;-67
2021/12/07 11:59:22;;;;;;;;;;;;;;;;;;5084435;28;19958;-68
2021/12/07 12:01:51;;;;;;;;;;;;;;;;;;5086261;28;20005;-71
2021/12/07 12:04:22;;;;;;;;;;;;;;;;;;5086677;28;19980;-70
2021/12/07 12:06:50;;;;;;;;;;;;;;;;;;5094376;28;19924;-71
2021/12/07 12:09:19;;;;;;;;;;;;;;;;;;5083845;28;19931;-70
2021/12/07 12:11:49;;;;;;;;;;;;;;;;;;5067868;28;20404;-71
2021/12/07 12:14:20;;;;;;;;;;;;;;;;;;5075642;28;20254;-67
2021/12/07 12:16:56;;;;;;;;;;;;;;;;;;5085303;28;20253;-70
2021/12/07 12:19:29;;;;;;;;;;;;;;;;;;5079826;28;19924;-70
2021/12/07 12:21:56;;;;;;;;;;;;;;;;;;5072817;28;19928;-68
2021/12/07 12:24:26;;;;;;;;;;;;;;;;;;5077852;28;19932;-68
2021/12/07 12:26:55;;;;;;;;;;;;;;;;;;5084402;28;19935;-69
2021/12/07 12:29:24;;;;;;;;;;;;;;;;;;5079364;28;19943;-71
2021/12/07 12:31:53;;;;;;;;;;;;;;;;;;5079664;28;19973;-69
2021/12/07 12:34:22;;;;;;;;;;;;;;;;;;5072094;28;19932;-70
2021/12/07 12:36:53;;;;;;;;;;;;;;;;;;5056800;28;19935;-71
2021/12/07 12:39:23;;;;;;;;;;;;;;;;;;5064680;28;19924;-71
2021/12/07 12:41:53;;;;;;;;;;;;;;;;;;5050544;28;19929;-70
2021/12/07 12:44:26;;;;;;;;;;;;;;;;;;5063119;28;19924;-69
2021/12/07 12:46:58;;;;;;;;;;;;;;;;;;5061092;28;19925;-67
2021/12/07 12:49:30;;;;;;;;;;;;;;;;;;5046534;28;19981;-68
2021/12/07 12:52:00;;;;;;;;;;;;;;;;;;5064569;28;19924;-67
2021/12/07 12:54:29;;;;;;;;;;;;;;;;;;5066881;28;19943;-67
2021/12/07 12:56:59;;;;;;;;;;;;;;;;;;5057126;28;19928;-68
2021/12/07 12:59:33;;;;;;;;;;;;;;;;;;5063768;28;20551;-73
2021/12/07 13:02:00;;;;;;;;;;;;;;;;;;5060980;28;19925;-69
2021/12/07 13:04:34;;;;;;;;;;;;;;;;;;5063541;28;19925;-69
2021/12/07 13:09:42;;;;;;;;;;;;;;;;;;5068106;28;19932;-70
2021/12/07 13:12:15;;;;;;;;;;;;;;;;;;5061792;28;19932;-69
2021/12/07 13:14:52;;;;;;;;;;;;;;;;;;5058122;28;19924;-68
2021/12/07 13:17:25;;;;;;;;;;;;;;;;;;5065331;28;19936;-70
2021/12/07 13:19:53;;;;;;;;;;;;;;;;;;5067347;28;19928;-72
2021/12/07 13:22:23;;;;;;;;;;;;;;;;;;5062367;28;20536;-72
2021/12/07 13:24:56;;;;;;;;;;;;;;;;;;5066525;28;19924;-71
2021/12/07 13:27:28;;;;;;;;;;;;;;;;;;5063669;28;19932;-67
2021/12/07 13:30:02;;;;;;;;;;;;;;;;;;5055940;28;19925;-68
2021/12/07 13:32:33;;;;;;;;;;;;;;;;;;5066200;28;19936;-69
2021/12/07 13:35:08;;;;;;;;;;;;;;;;;;5063424;28;19925;-70
2021/12/07 13:37:41;;;;;;;;;;;;;;;;;;5074619;28;20473;-69
2021/12/07 13:40:12;;;;;;;;;;;;;;;;;;5043253;28;19935;-71
2021/12/07 13:42:47;;;;;;;;;;;;;;;;;;5075659;28;19940;-70
2021/12/07 13:45:19;;;;;;;;;;;;;;;;;;5073434;28;19932;-72
2021/12/07 13:47:47;;;;;;;;;;;;;;;;;;5071257;28;19924;-70
2021/12/07 13:50:18;;;;;;;;;;;;;;;;;;5073131;28;19934;-68
2021/12/07 13:52:47;;;;;;;;;;;;;;;;;;5067460;28;19940;-68
2021/12/07 13:55:18;;;;;;;;;;;;;;;;;;5058126;28;20544;-70
2021/12/07 13:57:47;;;;;;;;;;;;;;;;;;5066754;28;19928;-70
2021/12/07 14:00:20;;;;;;;;;;;;;;;;;;5069865;28;20523;-68
2021/12/07 14:02:53;;;;;;;;;;;;;;;;;;5066172;28;20456;-69
2021/12/07 14:05:23;;;;;;;;;;;;;;;;;;5066064;28;19932;-67
2021/12/07 14:07:54;;;;;;;;;;;;;;;;;;5063404;28;20373;-68
2021/12/07 14:10:22;;;;;;;;;;;;;;;;;;5073169;28;19924;-73
2021/12/07 14:12:54;;;;;;;;;;;;;;;;;;5067457;28;20354;-73
2021/12/07 14:15:30;;;;;;;;;;;;;;;;;;5054170;28;19925;-71
2021/12/07 14:17:59;;;;;;;;;;;;;;;;;;5065070;28;19931;-70
2021/12/07 14:20:32;;;;;;;;;;;;;;;;;;5070734;28;20297;-71
2021/12/07 14:23:14;;;;;;;;;;;;;;;;;;5071821;28;19967;-71
2021/12/07 14:25:44;;;;;;;;;;;;;;;;;;5074390;28;19932;-69
2021/12/07 14:28:17;;;;;;;;;;;;;;;;;;5069630;28;19925;-69
2021/12/07 14:30:48;;;;;;;;;;;;;;;;;;5064954;28;20435;-69
2021/12/07 14:33:17;;;;;;;;;;;;;;;;;;5069317;28;19932;-69
2021/12/07 14:35:47;;;;;;;;;;;;;;;;;;5057683;28;19935;-70
2021/12/07 14:38:16;;;;;;;;;;;;;;;;;;5061346;28;19924;-69
2021/12/07 14:40:47;;;;;;;;;;;;;;;;;;5065917;28;20749;-71
2021/12/07 14:43:16;;;;;;;;;;;;;;;;;;5073950;28;19935;-69
2021/12/07 14:45:45;;;;;;;;;;;;;;;;;;5079841;28;19925;-69
2021/12/07 14:48:14;;;;;;;;;;;;;;;;;;5061108;28;19932;-69
2021/12/07 14:50:45;;;;;;;;;;;;;;;;;;5068387;28;20485;-66
2021/12/07 14:53:15;;;;;;;;;;;;;;;;;;5067100;28;19924;-66
2021/12/07 14:55:47;;;;;;;;;;;;;;;;;;5070229;28;19944;-72
2021/12/07 14:58:16;;;;;;;;;;;;;;;;;;5062448;28;19932;-73
2021/12/07 15:00:47;;;;;;;;;;;;;;;;;;5077575;28;19981;-66
2021/12/07 15:03:21;;;;;;;;;;;;;;;;;;5069095;28;20329;-69
2021/12/07 15:05:51;;;;;;;;;;;;;;;;;;5069318;28;19935;-70
2021/12/07 15:08:22;;;;;;;;;;;;;;;;;;5067520;28;19932;-70
2021/12/07 15:10:49;;;;;;;;;;;;;;;;;;5069206;28;19924;-68
2021/12/07 15:13:19;;;;;;;;;;;;;;;;;;5064621;28;19974;-68
2021/12/07 15:15:50;;;;;;;;;;;;;;;;;;5083841;28;19928;-71
2021/12/07 15:18:19;;;;;;;;;;;;;;;;;;5070392;28;20354;-69
2021/12/07 15:20:49;;;;;;;;;;;;;;;;;;5079023;28;19924;-69
2021/12/07 15:23:20;;;;;;;;;;;;;;;;;;5071305;28;19924;-70
2021/12/07 15:25:48;;;;;;;;;;;;;;;;;;5078203;28;20006;-69
2021/12/07 15:28:30;;;;;;;;;;;;;;;;;;5065996;28;19969;-70
2021/12/07 15:31:04;;;;;;;;;;;;;;;;;;5081908;28;20052;-70
2021/12/07 15:33:52;;;;;;;;;;;;;;;;;;5061324;28;19924;-72
2021/12/07 15:36:19;;;;;;;;;;;;;;;;;;5096661;28;19996;-69
2021/12/07 15:38:50;;;;;;;;;;;;;;;;;;5089055;28;19931;-67
2021/12/07 15:41:20;;;;;;;;;;;;;;;;;;5101015;28;19928;-70
2021/12/07 15:43:50;;;;;;;;;;;;;;;;;;5086861;28;19928;-71
2021/12/07 15:46:21;;;;;;;;;;;;;;;;;;5089910;28;20000;-73
2021/12/07 15:48:50;;;;;;;;;;;;;;;;;;5088181;28;19989;-73
2021/12/07 15:51:20;;;;;;;;;;;;;;;;;;5089141;28;19924;-70
2021/12/07 15:53:55;;;;;;;;;;;;;;;;;;5085721;28;19928;-69
2021/12/07 15:56:25;;;;;;;;;;;;;;;;;;5083144;28;19932;-70
2021/12/07 15:59:07;;;;;;;;;;;;;;;;;;5075557;28;19924;-70
2021/12/07 16:01:40;;;;;;;;;;;;;;;;;;5093084;28;19924;-69
2021/12/07 16:04:19;;;;;;;;;;;;;;;;;;5088595;28;19924;-71
2021/12/07 16:06:49;;;;;;;;;;;;;;;;;;5088821;28;19934;-70
2021/12/07 16:09:22;;;;;;;;;;;;;;;;;;5083345;28;19932;-70
2021/12/07 16:12:05;;;;;;;;;;;;;;;;;;5080970;28;20273;-72
2021/12/07 16:14:36;;;;;;;;;;;;;;;;;;5087356;28;19923;-71
2021/12/07 16:17:09;;;;;;;;;;;;;;;;;;5086897;28;19932;-70
2021/12/07 16:19:39;;;;;;;;;;;;;;;;;;5081703;28;19931;-73
2021/12/07 16:22:06;;;;;;;;;;;;;;;;;;5064045;28;19936;-74
2021/12/07 16:24:35;;;;;;;;;;;;;;;;;;5084726;28;19928;-71
2021/12/07 16:27:14;;;;;;;;;;;;;;;;;;5086161;28;19932;-74
2021/12/07 16:29:48;;;;;;;;;;;;;;;;;;5085544;28;19936;-72
2021/12/07 16:32:16;;;;;;;;;;;;;;;;;;5081984;28;20009;-72
2021/12/07 16:34:47;;;;;;;;;;;;;;;;;;5059275;28;20586;-69
2021/12/07 16:37:19;;;;;;;;;;;;;;;;;;5062536;28;20299;-70
2021/12/07 16:39:51;;;;;;;;;;;;;;;;;;5044950;28;19936;-73
2021/12/07 16:42:22;;;;;;;;;;;;;;;;;;5062491;28;19926;-72
2021/12/07 16:44:54;;;;;;;;;;;;;;;;;;5057265;28;20350;-71
2021/12/07 16:47:27;;;;;;;;;;;;;;;;;;5046447;28;19936;-70
2021/12/07 16:49:59;;;;;;;;;;;;;;;;;;5063307;28;19924;-70
2021/12/07 16:52:28;;;;;;;;;;;;;;;;;;5064616;28;19931;-70
2021/12/07 16:54:59;;;;;;;;;;;;;;;;;;5057168;28;19932;-71
2021/12/07 16:57:27;;;;;;;;;;;;;;;;;;5063374;28;19996;-71
2021/12/07 16:59:57;;;;;;;;;;;;;;;;;;5060535;28;19928;-70
2021/12/07 17:02:29;;;;;;;;;;;;;;;;;;5062960;28;20681;-70
2021/12/07 17:05:04;;;;;;;;;;;;;;;;;;5063544;28;19928;-70
2021/12/07 17:07:36;;;;;;;;;;;;;;;;;;5068387;28;19928;-69
2021/12/07 17:10:05;;;;;;;;;;;;;;;;;;5060384;28;19936;-69
2021/12/07 17:12:34;;;;;;;;;;;;;;;;;;5061217;28;20001;-69
2021/12/07 17:15:05;;;;;;;;;;;;;;;;;;5061820;28;19924;-69
2021/12/07 17:17:34;;;;;;;;;;;;;;;;;;5062722;28;19925;-69
2021/12/07 17:20:05;;;;;;;;;;;;;;;;;;5060557;28;19935;-69
2021/12/07 17:22:34;;;;;;;;;;;;;;;;;;5061791;28;19928;-69
2021/12/07 17:25:02;;;;;;;;;;;;;;;;;;5057345;28;19993;-70
2021/12/07 17:27:33;;;;;;;;;;;;;;;;;;5062677;28;19946;-71
2021/12/07 17:30:01;;;;;;;;;;;;;;;;;;5063894;28;19932;-71
2021/12/07 17:32:31;;;;;;;;;;;;;;;;;;5062329;28;19939;-71
2021/12/07 17:35:02;;;;;;;;;;;;;;;;;;5084999;28;19977;-71
2021/12/07 17:37:33;;;;;;;;;;;;;;;;;;5074712;28;20376;-71
2021/12/07 17:40:05;;;;;;;;;;;;;;;;;;5086197;28;19923;-70
2021/12/07 17:42:35;;;;;;;;;;;;;;;;;;5087225;28;19931;-71
2021/12/07 17:45:06;;;;;;;;;;;;;;;;;;5085291;28;19939;-71
2021/12/07 17:47:34;;;;;;;;;;;;;;;;;;5084560;28;19924;-70
2021/12/07 17:50:07;;;;;;;;;;;;;;;;;;5083461;28;19928;-71
2021/12/07 17:52:38;;;;;;;;;;;;;;;;;;5076762;28;19932;-69
2021/12/07 17:55:07;;;;;;;;;;;;;;;;;;5083413;28;19924;-71
2021/12/07 17:57:34;;;;;;;;;;;;;;;;;;5093252;28;19932;-71
2021/12/07 18:00:05;;;;;;;;;;;;;;;;;;5084663;28;19962;-72
2021/12/07 18:02:36;;;;;;;;;;;;;;;;;;5089956;28;19925;-71
2021/12/07 18:05:11;;;;;;;;;;;;;;;;;;5092492;28;19928;-70
2021/12/07 18:07:43;;;;;;;;;;;;;;;;;;5092983;28;19924;-70
2021/12/07 18:10:11;;;;;;;;;;;;;;;;;;5085810;28;19928;-69
2021/12/07 18:12:44;;;;;;;;;;;;;;;;;;5087556;28;20014;-69
2021/12/07 18:15:27;;;;;;;;;;;;;;;;;;5087551;28;19936;-69
2021/12/07 18:17:56;;;;;;;;;;;;;;;;;;5083943;28;19924;-69
2021/12/07 18:20:27;;;;;;;;;;;;;;;;;;5088240;28;19935;-69
2021/12/07 18:22:59;;;;;;;;;;;;;;;;;;5084572;28;19953;-68
2021/12/07 18:25:29;;;;;;;;;;;;;;;;;;5059241;28;19924;-68
2021/12/07 18:27:57;;;;;;;;;;;;;;;;;;5084951;28;20408;-68
2021/12/07 18:30:35;;;;;;;;;;;;;;;;;;5067463;28;19932;-69
2021/12/07 18:33:14;;;;;;;;;;;;;;;;;;5077422;28;20019;-68
2021/12/07 18:35:44;;;;;;;;;;;;;;;;;;5066606;28;19924;-67
2021/12/07 18:38:14;;;;;;;;;;;;;;;;;;5060168;28;19931;-69
2021/12/07 18:40:43;;;;;;;;;;;;;;;;;;5075065;28;20290;-69
2021/12/07 18:43:12;;;;;;;;;;;;;;;;;;5050592;28;20582;-69
2021/12/07 18:45:44;;;;;;;;;;;;;;;;;;5069662;28;19929;-70
2021/12/07 18:48:15;;;;;;;;;;;;;;;;;;5061839;28;19940;-69
2021/12/07 18:50:46;;;;;;;;;;;;;;;;;;5079834;28;19931;-69
2021/12/07 18:53:16;;;;;;;;;;;;;;;;;;5062442;28;20553;-68
2021/12/07 18:55:50;;;;;;;;;;;;;;;;;;5070061;28;19936;-69